createdAt,value
2019-03-20T00:01:24.255Z,139.67
2019-03-20T00:03:57.175Z,122.97
2019-03-20T00:06:30.044Z,119.10
2019-03-20T00:09:03.282Z,89.53
2019-03-20T00:11:37.174Z,125.97
2019-03-20T00:14:10.261Z,124.57
2019-03-20T00:16:43.224Z,110.63
2019-03-20T00:19:16.069Z,100.73
2019-03-20T00:21:49.033Z,96.33
2019-03-20T00:24:22.032Z,109.73
2019-03-20T00:26:55.285Z,108.27
2019-03-20T00:29:29.167Z,102.03
2019-03-20T00:32:02.085Z,81.73
2019-03-20T00:34:35.219Z,98.97
2019-03-20T00:37:08.186Z,91.27
2019-03-20T00:39:42.102Z,106.10
2019-03-20T00:42:14.942Z,94.17
2019-03-20T00:44:47.777Z,86.33
2019-03-20T00:47:20.818Z,89.03
2019-03-20T00:49:53.696Z,88.47
2019-03-20T00:52:26.509Z,88.93
2019-03-20T00:54:59.383Z,86.30
2019-03-20T00:57:32.224Z,82.47
2019-03-20T01:00:06.088Z,83.40
2019-03-20T01:02:38.866Z,75.63
2019-03-20T01:05:13.286Z,81.37
2019-03-20T01:07:46.163Z,76.93
2019-03-20T01:10:19.840Z,82.50
2019-03-20T01:12:52.873Z,89.13
2019-03-20T01:15:25.679Z,84.13
2019-03-20T01:17:58.582Z,84.43
2019-03-20T01:20:31.452Z,90.83
2019-03-20T01:23:04.272Z,70.57
2019-03-20T01:25:37.156Z,79.33
2019-03-20T01:28:09.911Z,76.97
2019-03-20T01:30:42.800Z,76.00
2019-03-20T01:33:15.791Z,79.20
2019-03-20T01:35:48.595Z,90.63
2019-03-20T01:38:21.403Z,98.00
2019-03-20T01:40:57.907Z,98.60
2019-03-20T01:43:28.680Z,90.37
2019-03-20T01:46:01.493Z,88.17
2019-03-20T01:48:34.255Z,83.67
2019-03-20T01:51:23.197Z,79.37
2019-03-20T01:53:55.920Z,82.83
2019-03-20T01:56:28.629Z,79.77
2019-03-20T01:59:01.561Z,105.53
2019-03-20T02:01:34.400Z,97.03
2019-03-20T02:04:07.341Z,96.47
2019-03-20T02:06:40.219Z,107.20
2019-03-20T02:09:13.148Z,115.43
2019-03-20T02:11:46.105Z,93.93
2019-03-20T02:14:19.019Z,83.53
2019-03-20T02:16:51.817Z,79.73
2019-03-20T02:19:24.507Z,65.10
2019-03-20T02:21:57.380Z,69.37
2019-03-20T02:24:30.163Z,70.90
2019-03-20T02:27:03.201Z,72.63
2019-03-20T02:29:36.005Z,72.23
2019-03-20T02:32:08.932Z,69.43
2019-03-20T02:34:41.730Z,65.60
2019-03-20T02:37:14.564Z,56.53
2019-03-20T02:39:47.451Z,70.43
2019-03-20T02:42:20.342Z,58.57
2019-03-20T02:44:53.182Z,58.43
2019-03-20T02:47:26.035Z,71.33
2019-03-20T02:49:58.750Z,63.23
2019-03-20T02:52:31.591Z,58.93
2019-03-20T02:55:04.720Z,49.83
2019-03-20T02:57:37.649Z,64.33
2019-03-20T03:00:13.410Z,66.57
2019-03-20T03:02:46.196Z,69.03
2019-03-20T03:05:19.414Z,66.77
2019-03-20T03:07:52.232Z,65.90
2019-03-20T03:10:25.027Z,64.53
2019-03-20T03:12:57.885Z,71.10
2019-03-20T03:15:30.645Z,61.17
2019-03-20T03:18:03.465Z,76.47
2019-03-20T03:20:36.279Z,82.67
2019-03-20T03:23:09.195Z,67.03
2019-03-20T03:25:43.226Z,60.73
2019-03-20T03:28:16.054Z,69.30
2019-03-20T03:30:48.940Z,71.33
2019-03-20T03:33:21.813Z,65.97
2019-03-20T03:35:56.583Z,57.40
2019-03-20T03:38:29.299Z,63.60
2019-03-20T03:41:02.100Z,60.87
2019-03-20T03:43:34.976Z,63.43
2019-03-20T03:46:07.846Z,68.33
2019-03-20T03:48:40.639Z,71.40
2019-03-20T03:51:13.434Z,73.20
2019-03-20T03:53:46.243Z,63.00
2019-03-20T03:56:19.080Z,68.73
2019-03-20T03:58:51.915Z,59.03
2019-03-20T04:01:24.889Z,63.40
2019-03-20T04:03:57.655Z,67.90
2019-03-20T04:06:36.004Z,61.73
2019-03-20T04:09:06.666Z,65.27
2019-03-20T04:11:39.672Z,65.40
2019-03-20T04:14:12.452Z,59.63
2019-03-20T04:16:45.352Z,72.53
2019-03-20T04:19:18.192Z,71.47
2019-03-20T04:21:51.020Z,63.40
2019-03-20T04:24:23.907Z,59.07
2019-03-20T04:26:56.755Z,66.40
2019-03-20T04:29:29.665Z,65.73
2019-03-20T04:32:02.563Z,68.73
2019-03-20T04:34:35.439Z,51.60
2019-03-20T04:37:08.327Z,57.07
2019-03-20T04:39:42.282Z,57.97
2019-03-20T04:42:15.022Z,54.73
2019-03-20T04:44:47.879Z,73.10
2019-03-20T04:47:20.688Z,52.43
2019-03-20T04:49:53.568Z,69.53
2019-03-20T04:52:26.453Z,62.87
2019-03-20T04:54:59.309Z,62.27
2019-03-20T04:57:32.270Z,71.13
2019-03-20T05:00:06.865Z,63.13
2019-03-20T05:02:40.214Z,68.10
2019-03-20T05:05:13.096Z,60.53
2019-03-20T05:07:47.418Z,57.63
2019-03-20T05:10:20.232Z,51.03
2019-03-20T05:12:53.154Z,52.33
2019-03-20T05:15:26.001Z,59.47
2019-03-20T05:17:58.806Z,49.37
2019-03-20T05:20:31.631Z,50.10
2019-03-20T05:23:04.505Z,52.93
2019-03-20T05:25:37.726Z,54.43
2019-03-20T05:28:10.604Z,52.23
2019-03-20T05:30:45.925Z,54.57
2019-03-20T05:33:19.049Z,51.80
2019-03-20T05:35:51.828Z,49.57
2019-03-20T05:38:24.718Z,49.77
2019-03-20T05:40:57.632Z,47.87
2019-03-20T05:43:30.612Z,53.43
2019-03-20T05:46:03.496Z,46.10
2019-03-20T05:48:36.498Z,54.27
2019-03-20T05:51:09.386Z,50.40
2019-03-20T05:53:42.248Z,58.37
2019-03-20T05:56:15.105Z,52.77
2019-03-20T05:58:48.031Z,53.13
2019-03-20T06:01:21.007Z,57.43
2019-03-20T06:03:53.745Z,50.17
2019-03-20T06:06:26.648Z,50.50
2019-03-20T06:08:59.526Z,52.10
2019-03-20T06:11:32.773Z,50.27
2019-03-20T06:14:06.961Z,50.10
2019-03-20T06:16:39.716Z,55.93
2019-03-20T06:19:12.630Z,53.73
2019-03-20T06:21:45.690Z,48.17
2019-03-20T06:24:18.501Z,47.03
2019-03-20T06:26:51.342Z,43.97
2019-03-20T06:29:24.080Z,48.60
2019-03-20T06:31:56.900Z,46.83
2019-03-20T06:34:29.743Z,49.30
2019-03-20T06:37:02.553Z,45.30
2019-03-20T06:39:35.571Z,48.73
2019-03-20T06:42:08.477Z,42.77
2019-03-20T06:44:41.281Z,50.07
2019-03-20T06:47:13.979Z,54.23
2019-03-20T06:49:46.826Z,48.30
2019-03-20T06:52:19.530Z,53.87
2019-03-20T06:54:52.351Z,53.43
2019-03-20T06:57:25.234Z,46.33
2019-03-20T07:01:06.554Z,40.47
2019-03-20T07:04:37.022Z,44.87
2019-03-20T07:07:43.495Z,45.07
2019-03-20T07:10:36.100Z,45.70
2019-03-20T07:13:08.960Z,52.77
2019-03-20T07:15:43.723Z,51.50
2019-03-20T07:18:16.496Z,44.17
2019-03-20T07:20:49.202Z,43.27
2019-03-20T07:23:22.014Z,40.90
2019-03-20T07:25:55.009Z,42.17
2019-03-20T07:28:27.941Z,40.43
2019-03-20T07:31:00.754Z,44.83
2019-03-20T07:33:33.534Z,41.67
2019-03-20T07:36:06.514Z,42.57
2019-03-20T07:38:39.342Z,38.20
2019-03-20T07:41:12.247Z,37.07
2019-03-20T07:43:45.010Z,45.60
2019-03-20T07:46:17.858Z,35.40
2019-03-20T07:48:50.731Z,34.10
2019-03-20T07:51:23.559Z,38.13
2019-03-20T07:53:56.392Z,40.30
2019-03-20T07:56:29.179Z,45.07
2019-03-20T07:59:01.967Z,33.77
2019-03-20T08:01:34.696Z,38.87
2019-03-20T08:04:07.397Z,43.93
2019-03-20T08:06:40.212Z,35.63
2019-03-20T08:09:13.014Z,38.03
2019-03-20T08:11:45.941Z,30.43
2019-03-20T08:14:18.774Z,32.97
2019-03-20T08:16:51.754Z,32.67
2019-03-20T08:19:24.651Z,36.60
2019-03-20T08:21:57.484Z,30.80
2019-03-20T08:24:30.370Z,38.10
2019-03-20T08:27:03.290Z,34.90
2019-03-20T08:29:36.202Z,38.60
2019-03-20T08:32:09.122Z,27.47
2019-03-20T08:34:41.934Z,35.13
2019-03-20T08:37:14.767Z,29.42
2019-03-20T08:39:47.934Z,26.55
2019-03-20T08:42:22.018Z,25.97
2019-03-20T08:44:54.942Z,34.80
2019-03-20T08:47:27.723Z,31.57
2019-03-20T08:50:00.590Z,25.70
2019-03-20T08:52:33.495Z,25.07
2019-03-20T08:55:07.510Z,28.02
2019-03-20T08:57:41.882Z,25.27
2019-03-20T09:00:19.326Z,29.37
2019-03-20T09:02:52.436Z,28.38
2019-03-20T09:05:25.296Z,30.23
2019-03-20T09:07:58.100Z,31.27
2019-03-20T09:10:31.957Z,23.77
2019-03-20T09:13:04.812Z,34.60
2019-03-20T09:15:37.640Z,19.05
2019-03-20T09:18:10.416Z,25.08
2019-03-20T09:20:43.265Z,26.93
2019-03-20T09:23:16.073Z,27.13
2019-03-20T09:25:48.949Z,23.15
2019-03-20T09:28:21.742Z,22.07
2019-03-20T09:30:54.589Z,15.80
2019-03-20T09:33:27.582Z,23.80
2019-03-20T09:36:00.374Z,22.05
2019-03-20T09:38:43.050Z,22.37
2019-03-20T09:41:07.730Z,15.68
2019-03-20T09:43:40.527Z,17.40
2019-03-20T09:46:13.305Z,12.70
2019-03-20T09:48:46.086Z,15.83
2019-03-20T09:51:18.787Z,11.12
2019-03-20T09:53:51.532Z,14.40
2019-03-20T09:56:25.297Z,11.30
2019-03-20T09:58:57.989Z,13.03
2019-03-20T10:01:30.751Z,12.28
2019-03-20T10:04:03.649Z,12.18
2019-03-20T10:06:36.540Z,11.40
2019-03-20T10:09:10.617Z,13.00
2019-03-20T10:11:43.446Z,13.75
2019-03-20T10:14:16.246Z,11.08
2019-03-20T10:16:48.948Z,12.88
2019-03-20T10:19:21.785Z,9.33
2019-03-20T10:21:54.672Z,12.20
2019-03-20T10:24:27.485Z,10.00
2019-03-20T10:27:00.291Z,10.08
2019-03-20T10:29:33.584Z,8.30
2019-03-20T10:32:06.363Z,5.37
2019-03-20T10:34:39.818Z,10.58
2019-03-20T10:37:12.657Z,10.00
2019-03-20T10:39:45.508Z,7.10
2019-03-20T10:42:18.629Z,5.72
2019-03-20T10:44:52.486Z,6.55
2019-03-20T10:47:25.216Z,3.58
2019-03-20T10:49:57.992Z,6.33
2019-03-20T10:52:30.768Z,5.78
2019-03-20T10:55:03.536Z,6.75
2019-03-20T10:57:36.473Z,7.92
2019-03-20T11:00:20.788Z,5.37
2019-03-20T11:02:53.728Z,3.55
2019-03-20T11:05:28.077Z,7.55
2019-03-20T11:08:00.938Z,7.17
2019-03-20T11:10:33.920Z,6.28
2019-03-20T11:13:06.702Z,5.83
2019-03-20T11:15:39.519Z,6.20
2019-03-20T11:18:12.551Z,8.20
2019-03-20T11:20:45.466Z,10.63
2019-03-20T11:23:18.311Z,6.65
2019-03-20T11:25:51.167Z,12.43
2019-03-20T11:28:23.995Z,6.12
2019-03-20T11:30:56.848Z,7.28
2019-03-20T11:33:29.750Z,7.80
2019-03-20T11:36:02.573Z,8.40
2019-03-20T11:38:35.500Z,11.55
2019-03-20T11:41:08.214Z,7.75
2019-03-20T11:43:41.103Z,12.03
2019-03-20T11:46:15.506Z,7.20
2019-03-20T11:48:48.382Z,8.30
2019-03-20T11:51:21.165Z,8.88
2019-03-20T11:53:54.000Z,7.95
2019-03-20T11:56:26.959Z,10.80
2019-03-20T11:58:59.760Z,12.55
2019-03-20T12:01:32.637Z,10.30
2019-03-20T12:04:05.881Z,11.18
2019-03-20T12:06:38.733Z,9.23
2019-03-20T12:09:12.217Z,10.08
2019-03-20T12:11:46.191Z,9.53
2019-03-20T12:14:19.112Z,6.17
2019-03-20T12:16:52.085Z,18.00
2019-03-20T12:19:24.912Z,9.95
2019-03-20T12:21:57.858Z,12.20
2019-03-20T12:24:30.791Z,9.40
2019-03-20T12:27:14.566Z,7.92
2019-03-20T12:29:38.289Z,7.67
2019-03-20T12:32:11.128Z,7.58
2019-03-20T12:34:44.031Z,9.65
2019-03-20T12:37:17.806Z,11.43
2019-03-20T12:39:53.440Z,10.75
2019-03-20T12:42:25.222Z,7.08
2019-03-20T12:44:57.972Z,7.15
2019-03-20T12:47:31.976Z,10.58
2019-03-20T12:50:05.213Z,6.55
2019-03-20T12:52:38.242Z,10.43
2019-03-20T12:55:12.761Z,8.30
2019-03-20T12:57:45.563Z,10.93
2019-03-20T13:00:20.634Z,7.70
2019-03-20T13:02:53.473Z,7.55
2019-03-20T13:05:27.282Z,9.88
2019-03-20T13:08:05.719Z,8.18
2019-03-20T13:10:34.654Z,9.15
2019-03-20T13:13:08.518Z,11.15
2019-03-20T13:15:41.406Z,13.62
2019-03-20T13:18:14.379Z,5.42
2019-03-20T13:20:47.232Z,9.98
2019-03-20T13:23:23.475Z,7.47
2019-03-20T13:25:56.271Z,11.50
2019-03-20T13:28:29.291Z,10.10
2019-03-20T13:31:09.062Z,8.80
2019-03-20T13:33:41.921Z,5.55
2019-03-20T13:36:14.806Z,7.40
2019-03-20T13:38:47.656Z,7.62
2019-03-20T13:41:20.504Z,8.15
2019-03-20T13:43:53.619Z,8.83
2019-03-20T13:46:26.415Z,12.20
2019-03-20T13:48:59.311Z,7.58
2019-03-20T13:51:32.233Z,9.70
2019-03-20T13:54:05.046Z,4.90
2019-03-20T13:56:37.964Z,7.83
2019-03-20T13:59:11.097Z,6.40
2019-03-20T14:01:43.990Z,7.42
2019-03-20T14:04:16.817Z,12.45
2019-03-20T14:06:49.755Z,12.07
2019-03-20T14:09:22.628Z,6.53
2019-03-20T14:11:55.365Z,9.15
2019-03-20T14:14:29.223Z,7.08
2019-03-20T14:17:02.138Z,9.75
2019-03-20T14:19:34.996Z,9.78
2019-03-20T14:22:07.820Z,13.93
2019-03-20T14:24:40.653Z,11.08
2019-03-20T14:27:13.555Z,10.13
2019-03-20T14:29:46.368Z,8.03
2019-03-20T14:32:20.242Z,7.65
2019-03-20T14:34:53.271Z,8.73
2019-03-20T14:37:35.474Z,7.78
2019-03-20T14:40:09.593Z,9.55
2019-03-20T14:42:43.016Z,6.97
2019-03-20T14:45:16.595Z,6.40
2019-03-20T14:47:49.624Z,9.40
2019-03-20T14:50:24.924Z,7.22
2019-03-20T14:52:57.937Z,9.78
2019-03-20T14:55:33.800Z,10.00
2019-03-20T14:58:06.948Z,7.53
2019-03-20T15:00:40.010Z,8.05
2019-03-20T15:03:14.998Z,8.58
2019-03-20T15:05:47.527Z,8.58
2019-03-20T15:08:20.239Z,8.55
2019-03-20T15:10:53.302Z,8.15
2019-03-20T15:13:26.331Z,9.70
2019-03-20T15:16:10.434Z,9.08
2019-03-20T15:18:44.998Z,6.53
2019-03-20T15:21:17.917Z,11.30
2019-03-20T15:23:50.953Z,9.48
2019-03-20T15:26:23.873Z,10.03
2019-03-20T15:28:58.448Z,6.40
2019-03-20T15:31:31.409Z,8.78
2019-03-20T15:34:07.390Z,10.68
2019-03-20T15:36:40.413Z,8.25
2019-03-20T15:39:16.360Z,12.28
2019-03-20T15:41:52.444Z,9.90
2019-03-20T15:44:25.509Z,8.18
2019-03-20T15:46:58.790Z,8.28
2019-03-20T15:49:37.179Z,7.70
2019-03-20T15:52:11.003Z,8.15
2019-03-20T15:54:43.851Z,8.43
2019-03-20T15:57:16.782Z,15.78
2019-03-20T15:59:49.864Z,8.40
2019-03-20T16:02:22.669Z,7.72
2019-03-20T16:04:57.031Z,10.03
2019-03-20T16:07:29.984Z,12.85
2019-03-20T16:10:03.015Z,7.60
2019-03-20T16:12:36.144Z,14.53
2019-03-20T16:15:12.093Z,9.23
2019-03-20T16:17:44.871Z,6.70
2019-03-20T16:20:17.937Z,13.30
2019-03-20T16:22:50.845Z,13.40
2019-03-20T16:25:23.662Z,7.20
2019-03-20T16:27:56.524Z,6.58
2019-03-20T16:30:32.702Z,9.60
2019-03-20T16:33:05.548Z,7.80
2019-03-20T16:35:38.396Z,8.63
2019-03-20T16:38:12.024Z,12.37
2019-03-20T16:40:45.093Z,6.85
2019-03-20T16:43:17.897Z,12.10
2019-03-20T16:45:50.870Z,8.33
2019-03-20T16:48:23.893Z,6.83
2019-03-20T16:50:56.870Z,6.67
2019-03-20T16:53:29.800Z,11.78
2019-03-20T16:56:02.637Z,12.93
2019-03-20T16:58:35.521Z,8.63
2019-03-20T17:01:08.339Z,12.35
2019-03-20T17:03:41.264Z,9.45
2019-03-20T17:06:14.302Z,11.73
2019-03-20T17:08:48.211Z,8.33
2019-03-20T17:11:30.334Z,10.78
2019-03-20T17:13:55.862Z,10.10
2019-03-20T17:16:28.696Z,9.55
2019-03-20T17:19:01.573Z,9.08
2019-03-20T17:21:34.420Z,8.28
2019-03-20T17:24:07.534Z,8.45
2019-03-20T17:26:40.436Z,14.18
2019-03-20T17:29:13.770Z,8.73
2019-03-20T17:31:46.684Z,10.38
2019-03-20T17:34:19.628Z,13.35
2019-03-20T17:36:52.747Z,16.73
2019-03-20T17:39:25.560Z,12.73
2019-03-20T17:41:58.338Z,10.45
2019-03-20T17:44:31.217Z,8.68
2019-03-20T17:47:04.091Z,10.80
2019-03-20T17:49:36.874Z,11.78
2019-03-20T17:52:09.785Z,17.37
2019-03-20T17:54:42.766Z,11.60
2019-03-20T17:57:15.706Z,20.90
2019-03-20T17:59:48.482Z,33.15
2019-03-20T18:02:24.328Z,34.43
2019-03-20T18:04:55.976Z,34.25
2019-03-20T18:07:28.743Z,157.90
2019-03-20T18:10:02.971Z,206.25
2019-03-20T18:12:36.105Z,93.72
2019-03-20T18:15:10.868Z,49.65
2019-03-20T18:17:43.845Z,37.05
2019-03-20T18:20:16.917Z,36.30
2019-03-20T18:22:49.776Z,28.07
2019-03-20T18:25:22.763Z,20.05
2019-03-20T18:27:55.644Z,19.60
2019-03-20T18:30:28.685Z,28.62
2019-03-20T18:33:01.420Z,27.80
2019-03-20T18:35:34.356Z,30.92
2019-03-20T18:38:08.336Z,33.90
2019-03-20T18:40:41.124Z,39.53
2019-03-20T18:43:14.024Z,49.18
2019-03-20T18:45:46.933Z,44.93
2019-03-20T18:48:20.003Z,44.27
2019-03-20T18:50:52.931Z,39.92
2019-03-20T18:53:25.807Z,40.95
2019-03-20T18:55:58.615Z,39.08
2019-03-20T18:58:31.347Z,36.03
2019-03-20T19:01:04.218Z,34.25
2019-03-20T19:03:40.014Z,30.97
2019-03-20T19:06:21.544Z,34.67
2019-03-20T19:08:54.451Z,30.97
2019-03-20T19:11:27.255Z,34.73
2019-03-20T19:14:02.396Z,44.95
2019-03-20T19:16:36.466Z,38.65
2019-03-20T19:19:09.472Z,28.75
2019-03-20T19:21:42.463Z,24.85
2019-03-20T19:24:15.450Z,26.20
2019-03-20T19:26:48.358Z,23.07
2019-03-20T19:29:21.116Z,26.35
2019-03-20T19:31:55.788Z,25.60
2019-03-20T19:34:28.723Z,25.65
2019-03-20T19:37:01.562Z,27.25
2019-03-20T19:39:34.511Z,21.37
2019-03-20T19:42:07.414Z,25.02
2019-03-20T19:44:40.614Z,28.12
2019-03-20T19:47:13.749Z,16.37
2019-03-20T19:49:46.702Z,24.92
2019-03-20T19:52:19.828Z,20.80
2019-03-20T19:54:52.883Z,23.18
2019-03-20T19:57:26.173Z,18.00
2019-03-20T19:59:59.656Z,17.67
2019-03-20T20:02:32.693Z,18.02
2019-03-20T20:05:15.289Z,24.35
2019-03-20T20:07:41.338Z,24.80
2019-03-20T20:10:15.331Z,19.50
2019-03-20T20:12:48.246Z,13.20
2019-03-20T20:15:22.761Z,14.65
2019-03-20T20:17:55.597Z,12.47
2019-03-20T20:20:28.594Z,16.35
2019-03-20T20:23:04.283Z,16.23
2019-03-20T20:25:36.786Z,16.65
2019-03-20T20:28:11.433Z,19.07
2019-03-20T20:30:44.571Z,17.62
2019-03-20T20:33:17.433Z,16.62
2019-03-20T20:35:50.431Z,25.50
2019-03-20T20:39:48.152Z,18.10
2019-03-20T20:42:21.268Z,14.55
2019-03-20T20:44:55.115Z,17.50
2019-03-20T20:47:28.067Z,15.60
2019-03-20T20:50:01.120Z,15.98
2019-03-20T20:52:37.295Z,17.10
2019-03-20T20:55:11.997Z,14.70
2019-03-20T20:57:45.304Z,18.82
2019-03-20T21:00:24.885Z,15.43
2019-03-20T21:02:58.509Z,19.67
2019-03-20T21:05:31.584Z,15.50
2019-03-20T21:08:04.373Z,19.98
2019-03-20T21:10:37.298Z,18.60
2019-03-20T21:13:10.274Z,17.20
2019-03-20T21:15:57.914Z,18.95
2019-03-20T21:19:33.386Z,17.45
2019-03-20T21:23:02.373Z,18.85
2019-03-20T21:25:36.151Z,18.60
2019-03-20T21:29:03.810Z,15.70
2019-03-20T21:32:29.014Z,16.00
2019-03-20T21:36:01.011Z,21.37
2019-03-20T21:38:34.811Z,24.18
2019-03-20T21:42:08.513Z,17.73
2019-03-20T21:45:26.817Z,20.23
2019-03-20T21:48:00.520Z,19.80
2019-03-20T21:51:16.812Z,27.32
2019-03-20T21:54:59.812Z,26.82
2019-03-20T21:58:01.031Z,21.85
2019-03-20T22:01:34.870Z,22.45
2019-03-20T22:04:08.457Z,18.82
2019-03-20T22:07:11.562Z,20.62
2019-03-20T22:10:43.226Z,18.48
2019-03-20T22:13:51.502Z,20.90
2019-03-20T22:17:29.291Z,17.70
2019-03-20T22:20:32.701Z,19.50
2019-03-20T22:24:03.906Z,20.80
2019-03-20T22:27:21.459Z,17.37
2019-03-20T22:29:54.964Z,17.07
2019-03-20T22:33:41.160Z,21.42
2019-03-20T22:36:30.208Z,21.10
2019-03-20T22:40:12.376Z,18.12
2019-03-20T22:42:55.634Z,19.42
2019-03-20T22:46:42.175Z,25.05
2019-03-20T22:50:23.210Z,26.23
2019-03-20T22:54:11.179Z,20.60
2019-03-20T22:57:16.400Z,23.18
2019-03-20T22:59:50.093Z,24.37
2019-03-20T23:02:55.694Z,25.35
2019-03-20T23:05:29.391Z,24.87
2019-03-20T23:08:12.559Z,20.00
2019-03-20T23:10:48.282Z,18.52
2019-03-20T23:13:21.807Z,21.07
2019-03-20T23:15:55.413Z,21.62
2019-03-20T23:18:30.088Z,20.17
2019-03-20T23:21:03.558Z,22.07
2019-03-20T23:23:38.799Z,26.12
2019-03-20T23:26:12.472Z,19.75
2019-03-20T23:28:46.066Z,21.12
2019-03-20T23:31:20.648Z,26.00
2019-03-20T23:33:54.277Z,25.77
2019-03-20T23:36:28.392Z,23.20
2019-03-20T23:39:02.120Z,18.48
2019-03-20T23:41:37.255Z,21.12
2019-03-20T23:44:10.942Z,23.55
2019-03-20T23:46:44.630Z,24.52
2019-03-20T23:49:21.787Z,21.35
2019-03-20T23:51:55.462Z,22.93
2019-03-20T23:54:52.883Z,24.85
2019-03-20T23:57:26.548Z,24.20
